createdAt,value
2023-03-27T00:00:27.817Z,1003.81
2023-03-27T00:01:28.719Z,1003.82
2023-03-27T00:02:29.653Z,1003.81
2023-03-27T00:03:30.573Z,1003.78
2023-03-27T00:04:31.438Z,1003.80
2023-03-27T00:05:32.320Z,1003.80
2023-03-27T00:06:33.209Z,1003.78
2023-03-27T00:07:34.094Z,1003.74
2023-03-27T00:08:34.974Z,1003.71
2023-03-27T00:09:35.871Z,1003.74
2023-03-27T00:10:36.735Z,1003.76
2023-03-27T00:11:37.629Z,1003.80
2023-03-27T00:12:38.512Z,1003.83
2023-03-27T00:13:49.193Z,1003.83
2023-03-27T00:14:41.174Z,1003.81
2023-03-27T00:15:41.039Z,1003.79
2023-03-27T00:16:41.996Z,1003.79
2023-03-27T00:17:42.862Z,1003.75
2023-03-27T00:18:43.730Z,1003.71
2023-03-27T00:19:44.611Z,1003.72
2023-03-27T00:20:45.491Z,1003.74
2023-03-27T00:21:46.395Z,1003.75
2023-03-27T00:22:47.263Z,1003.75
2023-03-27T00:23:48.145Z,1003.77
2023-03-27T00:24:49.028Z,1003.77
2023-03-27T00:25:49.930Z,1003.80
2023-03-27T00:26:50.798Z,1003.79
2023-03-27T00:27:51.683Z,1003.76
2023-03-27T00:28:52.576Z,1003.75
2023-03-27T00:29:53.466Z,1003.77
2023-03-27T00:30:54.490Z,1003.74
2023-03-27T00:31:54.974Z,1003.75
2023-03-27T00:32:55.883Z,1003.75
2023-03-27T00:33:56.739Z,1003.77
2023-03-27T00:34:57.620Z,1003.76
2023-03-27T00:35:58.517Z,1003.76
2023-03-27T00:36:59.390Z,1003.69
2023-03-27T00:38:00.285Z,1003.68
2023-03-27T00:39:01.158Z,1003.73
2023-03-27T00:40:02.057Z,1003.76
2023-03-27T00:41:02.986Z,1003.78
2023-03-27T00:42:03.869Z,1003.78
2023-03-27T00:43:04.760Z,1003.79
2023-03-27T00:44:05.616Z,1003.80
2023-03-27T00:45:06.540Z,1003.78
2023-03-27T00:46:07.442Z,1003.76
2023-03-27T00:47:08.286Z,1003.75
2023-03-27T00:48:09.180Z,1003.76
2023-03-27T00:49:10.054Z,1003.79
2023-03-27T00:50:10.930Z,1003.79
2023-03-27T00:51:11.813Z,1003.77
2023-03-27T00:52:12.705Z,1003.76
2023-03-27T00:53:13.600Z,1003.77
2023-03-27T00:54:14.465Z,1003.78
2023-03-27T00:55:15.354Z,1003.76
2023-03-27T00:56:16.220Z,1003.80
2023-03-27T00:57:17.136Z,1003.81
2023-03-27T00:58:17.993Z,1003.76
2023-03-27T00:59:18.878Z,1003.76
2023-03-27T01:00:19.804Z,1003.73
2023-03-27T01:01:20.687Z,1003.71
2023-03-27T01:02:21.589Z,1003.68
2023-03-27T01:03:22.561Z,1003.63
2023-03-27T01:04:22.938Z,1003.62
2023-03-27T01:05:23.816Z,1003.62
2023-03-27T01:06:24.700Z,1003.64
2023-03-27T01:07:25.586Z,1003.67
2023-03-27T01:08:26.458Z,1003.61
2023-03-27T01:09:27.336Z,1003.56
2023-03-27T01:10:28.217Z,1003.60
2023-03-27T01:11:29.103Z,1003.60
2023-03-27T01:12:29.994Z,1003.61
2023-03-27T01:13:30.871Z,1003.57
2023-03-27T01:14:31.762Z,1003.55
2023-03-27T01:15:32.687Z,1003.55
2023-03-27T01:16:33.517Z,1003.50
2023-03-27T01:17:34.438Z,1003.44
2023-03-27T01:18:35.287Z,1003.41
2023-03-27T01:19:36.169Z,1003.42
2023-03-27T01:20:37.050Z,1003.46
2023-03-27T01:21:37.939Z,1003.51
2023-03-27T01:22:38.820Z,1003.52
2023-03-27T01:23:59.032Z,1003.57
2023-03-27T01:24:41.474Z,1003.59
2023-03-27T01:25:41.340Z,1003.60
2023-03-27T01:26:42.219Z,1003.63
2023-03-27T01:27:43.136Z,1003.58
2023-03-27T01:28:44.013Z,1003.55
2023-03-27T01:29:44.907Z,1003.55
2023-03-27T01:30:45.833Z,1003.54
2023-03-27T01:31:46.743Z,1003.56
2023-03-27T01:32:47.652Z,1003.51
2023-03-27T01:33:48.490Z,1003.51
2023-03-27T01:34:49.390Z,1003.54
2023-03-27T01:35:51.251Z,1003.55
2023-03-27T01:36:51.093Z,1003.54
2023-03-27T01:37:51.974Z,1003.55
2023-03-27T01:38:52.856Z,1003.59
2023-03-27T01:39:53.761Z,1003.55
2023-03-27T01:40:54.928Z,1003.56
2023-03-27T01:41:55.391Z,1003.54
2023-03-27T01:42:56.280Z,1003.54
2023-03-27T01:43:57.168Z,1003.53
2023-03-27T01:44:58.050Z,1003.56
2023-03-27T01:45:58.953Z,1003.63
2023-03-27T01:46:59.837Z,1003.67
2023-03-27T01:48:00.718Z,1003.71
2023-03-27T01:49:01.586Z,1003.72
2023-03-27T01:50:02.477Z,1003.70
2023-03-27T01:51:03.342Z,1003.69
2023-03-27T01:52:04.246Z,1003.68
2023-03-27T01:53:05.111Z,1003.67
2023-03-27T01:54:05.988Z,1003.70
2023-03-27T01:55:06.872Z,1003.69
2023-03-27T01:56:07.744Z,1003.71
2023-03-27T01:57:08.694Z,1003.72
2023-03-27T01:58:09.556Z,1003.72
2023-03-27T01:59:10.436Z,1003.70
2023-03-27T02:00:18.218Z,1003.67
2023-03-27T02:01:13.130Z,1003.68
2023-03-27T02:02:12.967Z,1003.70
2023-03-27T02:03:13.858Z,1003.69
2023-03-27T02:04:14.810Z,1003.68
2023-03-27T02:05:15.755Z,1003.67
2023-03-27T02:06:16.641Z,1003.70
2023-03-27T02:07:17.504Z,1003.75
2023-03-27T02:08:18.411Z,1003.76
2023-03-27T02:09:19.278Z,1003.81
2023-03-27T02:10:20.164Z,1003.84
2023-03-27T02:11:21.038Z,1003.82
2023-03-27T02:12:21.923Z,1003.80
2023-03-27T02:13:22.815Z,1003.79
2023-03-27T02:14:23.699Z,1003.76
2023-03-27T02:15:25.355Z,1003.82
2023-03-27T02:16:25.465Z,1003.84
2023-03-27T02:17:26.555Z,1003.84
2023-03-27T02:18:26.972Z,1003.84
2023-03-27T02:19:27.868Z,1003.83
2023-03-27T02:20:28.759Z,1003.79
2023-03-27T02:21:29.627Z,1003.80
2023-03-27T02:22:38.062Z,1003.79
2023-03-27T02:23:32.289Z,1003.76
2023-03-27T02:24:32.172Z,1003.77
2023-03-27T02:25:33.097Z,1003.84
2023-03-27T02:26:33.956Z,1003.88
2023-03-27T02:27:34.836Z,1003.89
2023-03-27T02:28:35.729Z,1003.88
2023-03-27T02:29:36.597Z,1003.90
2023-03-27T02:30:37.482Z,1003.94
2023-03-27T02:31:38.552Z,1003.94
2023-03-27T02:32:39.305Z,1003.91
2023-03-27T02:33:39.714Z,1003.93
2023-03-27T02:34:40.597Z,1003.95
2023-03-27T02:35:41.489Z,1003.95
2023-03-27T02:36:42.364Z,1003.94
2023-03-27T02:37:43.252Z,1004.02
2023-03-27T02:38:44.164Z,1004.08
2023-03-27T02:39:45.074Z,1004.03
2023-03-27T02:40:45.965Z,1004.00
2023-03-27T02:41:46.852Z,1004.07
2023-03-27T02:42:47.726Z,1004.07
2023-03-27T02:43:48.616Z,1004.03
2023-03-27T02:44:49.501Z,1004.07
2023-03-27T02:45:50.406Z,1004.07
2023-03-27T02:46:51.283Z,1004.11
2023-03-27T02:47:52.194Z,1004.13
2023-03-27T02:48:53.065Z,1004.12
2023-03-27T02:49:53.944Z,1004.11
2023-03-27T02:50:54.980Z,1004.04
2023-03-27T02:51:55.383Z,1004.02
2023-03-27T02:52:56.262Z,1004.00
2023-03-27T02:53:57.158Z,1004.00
2023-03-27T02:54:58.041Z,1004.03
2023-03-27T02:55:58.926Z,1004.06
2023-03-27T02:56:59.830Z,1004.11
2023-03-27T02:58:00.695Z,1004.09
2023-03-27T02:59:01.585Z,1004.06
2023-03-27T03:00:02.462Z,1004.05
2023-03-27T03:01:03.398Z,1004.01
2023-03-27T03:02:04.332Z,1003.98
2023-03-27T03:03:05.397Z,1004.00
2023-03-27T03:04:05.828Z,1004.11
2023-03-27T03:05:06.709Z,1004.06
2023-03-27T03:06:07.588Z,1004.04
2023-03-27T03:07:08.472Z,1004.11
2023-03-27T03:08:09.358Z,1004.15
2023-03-27T03:09:10.254Z,1004.21
2023-03-27T03:10:11.128Z,1004.27
2023-03-27T03:11:12.010Z,1004.24
2023-03-27T03:12:12.892Z,1004.28
2023-03-27T03:13:13.772Z,1004.31
2023-03-27T03:14:14.663Z,1004.27
2023-03-27T03:15:15.543Z,1004.24
2023-03-27T03:16:16.448Z,1004.32
2023-03-27T03:17:17.351Z,1004.28
2023-03-27T03:18:18.192Z,1004.25
2023-03-27T03:19:19.081Z,1004.31
2023-03-27T03:20:19.960Z,1004.35
2023-03-27T03:21:20.840Z,1004.36
2023-03-27T03:22:21.723Z,1004.29
2023-03-27T03:23:22.605Z,1004.25
2023-03-27T03:24:23.493Z,1004.31
2023-03-27T03:25:24.366Z,1004.33
2023-03-27T03:26:25.247Z,1004.41
2023-03-27T03:27:26.129Z,1004.44
2023-03-27T03:28:27.023Z,1004.33
2023-03-27T03:29:27.946Z,1004.36
2023-03-27T03:30:28.828Z,1004.43
2023-03-27T03:31:29.799Z,1004.47
2023-03-27T03:32:30.694Z,1004.48
2023-03-27T03:33:31.537Z,1004.45
2023-03-27T03:34:32.440Z,1004.47
2023-03-27T03:35:33.392Z,1004.46
2023-03-27T03:36:34.243Z,1004.45
2023-03-27T03:37:35.126Z,1004.43
2023-03-27T03:38:37.796Z,1004.50
2023-03-27T03:39:36.598Z,1004.60
2023-03-27T03:40:37.481Z,1004.59
2023-03-27T03:41:38.361Z,1004.59
2023-03-27T03:42:39.238Z,1004.63
2023-03-27T03:43:40.121Z,1004.55
2023-03-27T03:44:41.013Z,1004.61
2023-03-27T03:45:41.894Z,1004.65
2023-03-27T03:46:42.770Z,1004.69
2023-03-27T03:47:43.767Z,1004.66
2023-03-27T03:48:44.142Z,1004.56
2023-03-27T03:49:45.030Z,1004.53
2023-03-27T03:50:45.936Z,1004.61
2023-03-27T03:51:46.825Z,1004.68
2023-03-27T03:52:48.614Z,1004.65
2023-03-27T03:53:48.475Z,1004.69
2023-03-27T03:54:49.364Z,1004.78
2023-03-27T03:55:50.246Z,1004.82
2023-03-27T03:56:51.178Z,1004.75
2023-03-27T03:57:52.045Z,1004.68
2023-03-27T03:58:52.936Z,1004.73
2023-03-27T03:59:53.818Z,1004.77
2023-03-27T04:00:54.988Z,1004.82
2023-03-27T04:01:55.475Z,1004.82
2023-03-27T04:02:56.424Z,1004.79
2023-03-27T04:03:57.332Z,1004.84
2023-03-27T04:04:58.172Z,1004.86
2023-03-27T04:05:59.066Z,1004.80
2023-03-27T04:06:59.931Z,1004.83
2023-03-27T04:08:00.830Z,1004.83
2023-03-27T04:09:01.729Z,1004.81
2023-03-27T04:10:02.603Z,1004.86
2023-03-27T04:11:03.514Z,1004.91
2023-03-27T04:12:04.436Z,1004.99
2023-03-27T04:13:05.333Z,1005.04
2023-03-27T04:14:06.247Z,1005.06
2023-03-27T04:15:07.143Z,1005.04
2023-03-27T04:16:08.275Z,1005.02
2023-03-27T04:17:08.632Z,1005.13
2023-03-27T04:18:09.767Z,1005.24
2023-03-27T04:19:10.156Z,1005.23
2023-03-27T04:20:11.046Z,1005.25
2023-03-27T04:21:11.926Z,1005.25
2023-03-27T04:22:12.807Z,1005.26
2023-03-27T04:23:13.690Z,1005.25
2023-03-27T04:24:14.594Z,1005.23
2023-03-27T04:25:15.481Z,1005.19
2023-03-27T04:26:16.471Z,1005.18
2023-03-27T04:27:17.321Z,1005.22
2023-03-27T04:28:18.208Z,1005.31
2023-03-27T04:29:19.087Z,1005.44
2023-03-27T04:30:19.997Z,1005.45
2023-03-27T04:31:20.903Z,1005.41
2023-03-27T04:32:21.929Z,1005.47
2023-03-27T04:33:22.305Z,1005.37
2023-03-27T04:34:23.165Z,1005.32
2023-03-27T04:35:24.080Z,1005.25
2023-03-27T04:36:24.950Z,1005.37
2023-03-27T04:37:25.820Z,1005.38
2023-03-27T04:38:26.698Z,1005.40
2023-03-27T04:39:27.579Z,1005.51
2023-03-27T04:40:28.468Z,1005.62
2023-03-27T04:41:29.351Z,1005.64
2023-03-27T04:42:30.229Z,1005.63
2023-03-27T04:43:31.112Z,1005.69
2023-03-27T04:44:31.992Z,1005.68
2023-03-27T04:45:32.878Z,1005.67
2023-03-27T04:46:33.816Z,1005.64
2023-03-27T04:47:34.695Z,1005.61
2023-03-27T04:48:35.638Z,1005.72
2023-03-27T04:49:36.475Z,1005.88
2023-03-27T04:50:37.363Z,1005.84
2023-03-27T04:51:38.243Z,1005.69
2023-03-27T04:52:39.149Z,1005.95
2023-03-27T04:53:40.057Z,1005.99
2023-03-27T04:54:40.928Z,1005.83
2023-03-27T04:55:41.825Z,1005.52
2023-03-27T04:56:42.809Z,1005.68
2023-03-27T04:57:43.656Z,1005.78
2023-03-27T04:58:44.560Z,1005.67
2023-03-27T04:59:45.463Z,1005.76
2023-03-27T05:00:46.416Z,1005.94
2023-03-27T05:01:47.244Z,1005.96
2023-03-27T05:02:48.191Z,1005.99
2023-03-27T05:03:49.097Z,1006.01
2023-03-27T05:04:49.942Z,1006.20
2023-03-27T05:05:50.880Z,1006.19
2023-03-27T05:06:51.857Z,1006.22
2023-03-27T05:07:52.290Z,1006.18
2023-03-27T05:08:53.169Z,1006.18
2023-03-27T05:09:54.009Z,1006.30
2023-03-27T05:10:55.284Z,1006.36
2023-03-27T05:11:55.644Z,1006.29
2023-03-27T05:12:58.381Z,1006.47
2023-03-27T05:13:57.291Z,1006.44
2023-03-27T05:14:58.116Z,1006.33
2023-03-27T05:15:59.074Z,1006.47
2023-03-27T05:16:59.558Z,1006.61
2023-03-27T05:18:00.495Z,1006.62
2023-03-27T05:19:01.344Z,1006.61
2023-03-27T05:20:02.191Z,1006.50
2023-03-27T05:21:03.021Z,1006.54
2023-03-27T05:22:03.851Z,1006.68
2023-03-27T05:23:04.693Z,1006.63
2023-03-27T05:24:05.499Z,1006.68
2023-03-27T05:25:06.331Z,1006.63
2023-03-27T05:26:07.167Z,1006.63
2023-03-27T05:27:07.983Z,1006.58
2023-03-27T05:28:08.808Z,1006.60
2023-03-27T05:29:09.634Z,1006.65
2023-03-27T05:30:10.461Z,1006.66
2023-03-27T05:31:11.325Z,1006.73
2023-03-27T05:32:12.135Z,1006.88
2023-03-27T05:33:12.965Z,1006.95
2023-03-27T05:34:13.810Z,1006.98
2023-03-27T05:35:14.618Z,1007.02
2023-03-27T05:36:15.453Z,1006.99
2023-03-27T05:37:16.397Z,1007.13
2023-03-27T05:38:17.213Z,1007.14
2023-03-27T05:39:18.029Z,1007.12
2023-03-27T05:40:18.856Z,1007.23
2023-03-27T05:41:19.693Z,1007.25
2023-03-27T05:42:20.544Z,1007.20
2023-03-27T05:43:21.366Z,1007.24
2023-03-27T05:44:22.207Z,1007.35
2023-03-27T05:45:23.024Z,1007.35
2023-03-27T05:46:23.888Z,1007.38
2023-03-27T05:47:24.722Z,1007.40
2023-03-27T05:48:25.519Z,1007.43
2023-03-27T05:49:26.364Z,1007.45
2023-03-27T05:50:27.171Z,1007.55
2023-03-27T05:51:28.010Z,1007.49
2023-03-27T05:52:28.952Z,1007.59
2023-03-27T05:53:29.712Z,1007.74
2023-03-27T05:54:30.531Z,1007.69
2023-03-27T05:55:31.357Z,1007.65
2023-03-27T05:56:32.233Z,1007.73
2023-03-27T05:57:33.141Z,1007.82
2023-03-27T05:58:33.955Z,1007.83
2023-03-27T05:59:34.879Z,1007.87
2023-03-27T06:00:35.641Z,1007.88
2023-03-27T06:01:36.483Z,1007.89
2023-03-27T06:02:37.363Z,1007.93
2023-03-27T06:03:38.421Z,1007.96
2023-03-27T06:04:39.052Z,1008.00
2023-03-27T06:05:39.877Z,1008.03
2023-03-27T06:06:40.708Z,1008.08
2023-03-27T06:07:43.261Z,1008.18
2023-03-27T06:08:42.478Z,1008.21
2023-03-27T06:09:43.292Z,1008.25
2023-03-27T06:10:44.121Z,1008.28
2023-03-27T06:11:44.973Z,1008.23
2023-03-27T06:12:48.305Z,1008.27
2023-03-27T06:13:46.655Z,1008.33
2023-03-27T06:14:47.473Z,1008.33
2023-03-27T06:15:48.313Z,1008.41
2023-03-27T06:16:49.148Z,1008.39
2023-03-27T06:17:50.006Z,1008.41
2023-03-27T06:18:50.804Z,1008.49
2023-03-27T06:19:51.650Z,1008.54
2023-03-27T06:20:52.467Z,1008.54
2023-03-27T06:21:53.286Z,1008.61
2023-03-27T06:22:54.116Z,1008.59
2023-03-27T06:23:54.940Z,1008.61
2023-03-27T06:24:55.770Z,1008.66
2023-03-27T06:25:56.759Z,1008.66
2023-03-27T06:26:57.151Z,1008.78
2023-03-27T06:27:57.978Z,1008.84
2023-03-27T06:28:58.828Z,1008.87
2023-03-27T06:29:59.634Z,1008.96
2023-03-27T06:31:00.500Z,1009.01
2023-03-27T06:32:01.358Z,1008.96
2023-03-27T06:33:02.257Z,1009.06
2023-03-27T06:34:03.026Z,1009.17
2023-03-27T06:35:03.868Z,1009.24
2023-03-27T06:36:04.695Z,1009.29
2023-03-27T06:37:05.514Z,1009.23
2023-03-27T06:38:06.342Z,1009.26
2023-03-27T06:39:07.168Z,1009.30
2023-03-27T06:40:08.048Z,1009.35
2023-03-27T06:41:08.846Z,1009.28
2023-03-27T06:42:09.701Z,1009.34
2023-03-27T06:43:10.538Z,1009.38
2023-03-27T06:44:11.360Z,1009.41
2023-03-27T06:45:12.190Z,1009.51
2023-03-27T06:46:13.053Z,1009.55
2023-03-27T06:47:13.944Z,1009.61
2023-03-27T06:48:21.534Z,1009.67
2023-03-27T06:49:16.490Z,1009.66
2023-03-27T06:50:16.330Z,1009.79
2023-03-27T06:51:17.132Z,1009.76
2023-03-27T06:52:17.990Z,1009.84
2023-03-27T06:53:27.281Z,1009.93
2023-03-27T06:54:20.532Z,1009.91
2023-03-27T06:55:20.368Z,1009.90
2023-03-27T06:56:21.186Z,1009.97
2023-03-27T06:57:22.066Z,1010.07
2023-03-27T06:58:22.880Z,1010.05
2023-03-27T06:59:23.714Z,1009.96
2023-03-27T07:00:24.560Z,1010.06
2023-03-27T07:01:25.421Z,1010.10
2023-03-27T07:02:26.258Z,1010.09
2023-03-27T07:03:27.047Z,1010.17
2023-03-27T07:04:27.875Z,1010.07
2023-03-27T07:05:28.773Z,1010.13
2023-03-27T07:06:29.566Z,1010.07
2023-03-27T07:07:30.420Z,1010.18
2023-03-27T07:08:31.248Z,1010.21
2023-03-27T07:09:32.087Z,1010.25
2023-03-27T07:10:32.917Z,1010.25
2023-03-27T07:11:33.733Z,1010.26
2023-03-27T07:12:34.594Z,1010.30
2023-03-27T07:13:35.416Z,1010.30
2023-03-27T07:14:36.550Z,1010.39
2023-03-27T07:15:36.859Z,1010.41
2023-03-27T07:16:37.734Z,1010.40
2023-03-27T07:17:48.203Z,1010.43
2023-03-27T07:18:40.254Z,1010.44
2023-03-27T07:19:40.074Z,1010.48
2023-03-27T07:20:40.916Z,1010.56
2023-03-27T07:21:41.724Z,1010.57
2023-03-27T07:22:42.564Z,1010.60
2023-03-27T07:23:43.402Z,1010.60
2023-03-27T07:24:44.217Z,1010.61
2023-03-27T07:25:45.052Z,1010.71
2023-03-27T07:26:45.872Z,1010.77
2023-03-27T07:27:46.740Z,1010.79
2023-03-27T07:28:47.577Z,1010.81
2023-03-27T07:29:48.399Z,1010.80
2023-03-27T07:30:49.247Z,1010.82
2023-03-27T07:32:50.870Z,1010.90
2023-03-27T07:33:51.883Z,1010.91
2023-03-27T07:34:52.186Z,1010.93
2023-03-27T07:35:53.048Z,1010.98
2023-03-27T07:36:53.837Z,1011.01
2023-03-27T07:37:54.664Z,1011.07
2023-03-27T07:38:55.499Z,1011.09
2023-03-27T07:39:56.326Z,1011.06
2023-03-27T07:40:57.151Z,1011.17
2023-03-27T07:41:57.987Z,1011.16
2023-03-27T07:42:58.820Z,1011.12
2023-03-27T07:43:59.650Z,1011.18
2023-03-27T07:45:01.882Z,1011.23
2023-03-27T07:46:01.402Z,1011.22
2023-03-27T07:47:02.196Z,1011.21
2023-03-27T07:48:03.100Z,1011.21
2023-03-27T07:49:03.881Z,1011.23
2023-03-27T07:50:04.717Z,1011.27
2023-03-27T07:51:13.462Z,1011.34
2023-03-27T07:52:07.233Z,1011.41
2023-03-27T07:53:07.076Z,1011.44
2023-03-27T07:54:07.896Z,1011.47
2023-03-27T07:55:08.726Z,1011.52
2023-03-27T07:56:09.552Z,1011.56
2023-03-27T07:57:10.453Z,1011.56
2023-03-27T07:58:11.389Z,1011.55
2023-03-27T07:59:12.234Z,1011.61
2023-03-27T08:00:13.065Z,1011.64
2023-03-27T08:01:13.890Z,1011.64
2023-03-27T08:02:14.718Z,1011.66
2023-03-27T08:03:15.707Z,1011.67
2023-03-27T08:04:16.212Z,1011.74
2023-03-27T08:05:17.049Z,1011.77
2023-03-27T08:06:17.897Z,1011.76
2023-03-27T08:07:18.703Z,1011.74
2023-03-27T08:08:19.542Z,1011.77
2023-03-27T08:09:20.365Z,1011.78
2023-03-27T08:10:21.189Z,1011.81
2023-03-27T08:11:30.035Z,1011.86
2023-03-27T08:12:23.737Z,1011.88
2023-03-27T08:13:23.574Z,1011.89
2023-03-27T08:14:24.417Z,1011.87
2023-03-27T08:15:25.471Z,1011.89
2023-03-27T08:16:25.868Z,1011.96
2023-03-27T08:17:26.868Z,1012.00
2023-03-27T08:18:27.286Z,1012.01
2023-03-27T08:19:28.060Z,1012.00
2023-03-27T08:20:28.900Z,1012.03
2023-03-27T08:21:29.738Z,1012.06
2023-03-27T08:22:30.540Z,1012.08
2023-03-27T08:23:31.380Z,1012.09
2023-03-27T08:24:32.213Z,1012.15
2023-03-27T08:25:33.269Z,1012.20
2023-03-27T08:26:33.592Z,1012.24
2023-03-27T08:27:34.420Z,1012.27
2023-03-27T08:28:35.284Z,1012.29
2023-03-27T08:29:36.103Z,1012.25
2023-03-27T08:30:36.946Z,1012.25
2023-03-27T08:31:37.756Z,1012.30
2023-03-27T08:32:38.612Z,1012.29
2023-03-27T08:33:39.429Z,1012.35
2023-03-27T08:34:40.250Z,1012.38
2023-03-27T08:35:41.087Z,1012.38
2023-03-27T08:36:41.917Z,1012.42
2023-03-27T08:37:42.727Z,1012.48
2023-03-27T08:38:43.569Z,1012.59
2023-03-27T08:39:44.393Z,1012.62
2023-03-27T08:40:45.220Z,1012.68
2023-03-27T08:41:46.049Z,1012.71
2023-03-27T08:42:46.879Z,1012.80
2023-03-27T08:43:47.713Z,1012.82
2023-03-27T08:44:48.541Z,1012.76
2023-03-27T08:45:49.368Z,1012.87
2023-03-27T08:46:50.270Z,1012.89
2023-03-27T08:47:51.208Z,1012.89
2023-03-27T08:48:52.019Z,1012.91
2023-03-27T08:49:52.825Z,1012.94
2023-03-27T08:50:53.675Z,1012.95
2023-03-27T08:51:54.505Z,1013.00
2023-03-27T08:52:55.304Z,1012.99
2023-03-27T08:53:56.140Z,1013.05
2023-03-27T08:54:56.964Z,1013.09
2023-03-27T08:55:58.193Z,1013.03
2023-03-27T08:56:58.719Z,1013.08
2023-03-27T08:57:59.561Z,1013.15
2023-03-27T08:59:00.377Z,1013.15
2023-03-27T09:00:01.211Z,1013.17
2023-03-27T09:01:02.027Z,1013.18
2023-03-27T09:02:02.878Z,1013.17
2023-03-27T09:03:03.723Z,1013.17
2023-03-27T09:04:04.833Z,1013.15
2023-03-27T09:05:05.304Z,1013.20
2023-03-27T09:06:06.132Z,1013.18
2023-03-27T09:07:06.986Z,1013.16
2023-03-27T09:08:07.788Z,1013.20
2023-03-27T09:09:08.651Z,1013.21
2023-03-27T09:10:09.524Z,1013.22
2023-03-27T09:11:10.434Z,1013.24
2023-03-27T09:12:11.379Z,1013.22
2023-03-27T09:13:12.223Z,1013.24
2023-03-27T09:14:13.089Z,1013.25
2023-03-27T09:15:13.919Z,1013.22
2023-03-27T09:16:14.765Z,1013.25
2023-03-27T09:17:15.574Z,1013.23
2023-03-27T09:18:16.414Z,1013.24
2023-03-27T09:19:17.244Z,1013.24
2023-03-27T09:20:18.260Z,1013.25
2023-03-27T09:21:18.640Z,1013.29
2023-03-27T09:22:19.491Z,1013.30
2023-03-27T09:23:21.226Z,1013.30
2023-03-27T09:24:21.068Z,1013.28
2023-03-27T09:25:21.894Z,1013.27
2023-03-27T09:26:22.726Z,1013.32
2023-03-27T09:27:23.546Z,1013.36
2023-03-27T09:28:24.387Z,1013.42
2023-03-27T09:29:25.320Z,1013.44
2023-03-27T09:30:26.097Z,1013.47
2023-03-27T09:31:26.931Z,1013.47
2023-03-27T09:32:27.766Z,1013.50
2023-03-27T09:33:29.463Z,1013.49
2023-03-27T09:34:29.311Z,1013.52
2023-03-27T09:35:30.156Z,1013.54
2023-03-27T09:36:30.958Z,1013.53
2023-03-27T09:37:31.808Z,1013.57
2023-03-27T09:38:32.613Z,1013.60
2023-03-27T09:39:33.452Z,1013.61
2023-03-27T09:40:34.281Z,1013.64
2023-03-27T09:41:35.110Z,1013.66
2023-03-27T09:42:35.935Z,1013.67
2023-03-27T09:43:36.766Z,1013.68
2023-03-27T09:44:37.602Z,1013.70
2023-03-27T09:45:38.420Z,1013.67
2023-03-27T09:46:39.302Z,1013.66
2023-03-27T09:47:40.173Z,1013.70
2023-03-27T09:48:40.964Z,1013.73
2023-03-27T09:49:41.794Z,1013.72
2023-03-27T09:50:42.620Z,1013.76
2023-03-27T09:51:43.449Z,1013.78
2023-03-27T09:52:44.296Z,1013.77
2023-03-27T09:53:45.094Z,1013.78
2023-03-27T09:54:45.930Z,1013.76
2023-03-27T09:55:46.767Z,1013.76
2023-03-27T09:56:47.637Z,1013.78
2023-03-27T09:57:48.446Z,1013.83
2023-03-27T09:58:49.430Z,1013.88
2023-03-27T09:59:50.246Z,1013.91
2023-03-27T10:00:51.078Z,1013.96
2023-03-27T10:01:51.922Z,1013.93
2023-03-27T10:02:52.804Z,1013.87
2023-03-27T10:03:53.672Z,1013.93
2023-03-27T10:04:54.534Z,1013.97
2023-03-27T10:05:55.368Z,1014.00
2023-03-27T10:06:56.181Z,1014.00
2023-03-27T10:07:57.025Z,1013.96
2023-03-27T10:08:57.842Z,1013.99
2023-03-27T10:09:58.667Z,1014.00
2023-03-27T10:10:59.639Z,1013.99
2023-03-27T10:12:00.053Z,1014.03
2023-03-27T10:13:00.875Z,1014.04
2023-03-27T10:14:01.703Z,1014.05
2023-03-27T10:15:02.538Z,1014.07
2023-03-27T10:16:03.386Z,1014.08
2023-03-27T10:17:04.242Z,1014.09
2023-03-27T10:18:05.137Z,1014.08
2023-03-27T10:19:05.945Z,1014.12
2023-03-27T10:20:06.784Z,1014.12
2023-03-27T10:21:07.605Z,1014.13
2023-03-27T10:22:08.448Z,1014.14
2023-03-27T10:23:10.246Z,1014.19
2023-03-27T10:24:10.022Z,1014.23
2023-03-27T10:25:10.856Z,1014.26
2023-03-27T10:26:11.689Z,1014.35
2023-03-27T10:27:12.531Z,1014.36
2023-03-27T10:28:13.358Z,1014.31
2023-03-27T10:29:14.233Z,1014.39
2023-03-27T10:30:15.711Z,1014.40
2023-03-27T10:31:16.011Z,1014.34
2023-03-27T10:32:16.807Z,1014.44
2023-03-27T10:33:17.654Z,1014.46
2023-03-27T10:34:18.469Z,1014.48
2023-03-27T10:35:19.326Z,1014.50
2023-03-27T10:36:20.121Z,1014.54
2023-03-27T10:37:20.937Z,1014.54
2023-03-27T10:38:21.812Z,1014.54
2023-03-27T10:39:22.608Z,1014.56
2023-03-27T10:40:23.464Z,1014.58
2023-03-27T10:41:28.862Z,1014.62
2023-03-27T10:42:26.041Z,1014.60
2023-03-27T10:43:25.872Z,1014.60
2023-03-27T10:44:26.699Z,1014.58
2023-03-27T10:45:27.549Z,1014.55
2023-03-27T10:46:28.423Z,1014.58
2023-03-27T10:47:29.248Z,1014.65
2023-03-27T10:48:30.085Z,1014.58
2023-03-27T10:49:30.903Z,1014.62
2023-03-27T10:50:31.729Z,1014.70
2023-03-27T10:51:43.065Z,1014.71
2023-03-27T10:52:34.354Z,1014.75
2023-03-27T10:53:34.204Z,1014.79
2023-03-27T10:54:35.067Z,1014.77
2023-03-27T10:55:35.869Z,1014.81
2023-03-27T10:56:36.725Z,1014.77
2023-03-27T10:57:37.531Z,1014.79
2023-03-27T10:58:38.365Z,1014.86
2023-03-27T10:59:41.974Z,1014.91
2023-03-27T11:00:40.050Z,1015.02
2023-03-27T11:01:40.913Z,1014.99
2023-03-27T11:02:41.731Z,1014.84
2023-03-27T11:03:42.621Z,1014.92
2023-03-27T11:04:43.390Z,1015.02
2023-03-27T11:05:44.256Z,1015.15
2023-03-27T11:06:45.052Z,1015.17
2023-03-27T11:07:45.864Z,1015.08
2023-03-27T11:08:46.762Z,1015.07
2023-03-27T11:09:47.552Z,1015.13
2023-03-27T11:10:48.378Z,1015.11
2023-03-27T11:11:49.199Z,1015.03
2023-03-27T11:12:50.029Z,1015.10
2023-03-27T11:13:50.884Z,1015.04
2023-03-27T11:14:51.699Z,1015.07
2023-03-27T11:15:52.521Z,1015.04
2023-03-27T11:16:53.374Z,1015.12
2023-03-27T11:17:54.230Z,1015.08
2023-03-27T11:18:55.063Z,1015.14
2023-03-27T11:19:55.900Z,1015.18
2023-03-27T11:20:56.998Z,1015.27
2023-03-27T11:21:57.377Z,1015.20
2023-03-27T11:22:58.210Z,1015.06
2023-03-27T11:23:59.103Z,1015.10
2023-03-27T11:24:59.920Z,1015.19
2023-03-27T11:26:00.702Z,1015.22
2023-03-27T11:27:01.522Z,1015.26
2023-03-27T11:28:02.368Z,1015.34
2023-03-27T11:29:03.217Z,1015.28
2023-03-27T11:30:04.029Z,1015.24
2023-03-27T11:31:12.760Z,1015.25
2023-03-27T11:32:06.582Z,1015.32
2023-03-27T11:33:06.453Z,1015.42
2023-03-27T11:34:07.255Z,1015.49
2023-03-27T11:35:08.077Z,1015.48
2023-03-27T11:36:08.972Z,1015.46
2023-03-27T11:37:09.765Z,1015.51
2023-03-27T11:38:10.711Z,1015.49
2023-03-27T11:39:11.505Z,1015.49
2023-03-27T11:40:12.402Z,1015.54
2023-03-27T11:41:15.278Z,1015.52
2023-03-27T11:42:13.765Z,1015.53
2023-03-27T11:43:14.609Z,1015.55
2023-03-27T11:44:15.445Z,1015.62
2023-03-27T11:45:16.268Z,1015.57
2023-03-27T11:46:17.125Z,1015.54
2023-03-27T11:47:17.943Z,1015.53
2023-03-27T11:48:18.817Z,1015.64
2023-03-27T11:49:19.634Z,1015.63
2023-03-27T11:50:20.445Z,1015.71
2023-03-27T11:51:21.276Z,1015.74
2023-03-27T11:52:22.184Z,1015.71
2023-03-27T11:53:22.954Z,1015.74
2023-03-27T11:54:23.812Z,1015.73
2023-03-27T11:55:24.616Z,1015.67
2023-03-27T11:56:25.446Z,1015.58
2023-03-27T11:57:26.283Z,1015.68
2023-03-27T11:58:27.106Z,1015.69
2023-03-27T11:59:27.940Z,1015.66
2023-03-27T12:00:28.769Z,1015.71
2023-03-27T12:01:29.599Z,1015.76
2023-03-27T12:02:30.553Z,1015.74
2023-03-27T12:03:31.026Z,1015.74
2023-03-27T12:04:31.818Z,1015.74
2023-03-27T12:05:32.641Z,1015.77
2023-03-27T12:06:33.469Z,1015.87
2023-03-27T12:07:37.123Z,1015.89
2023-03-27T12:08:34.813Z,1015.89
2023-03-27T12:09:35.667Z,1015.84
2023-03-27T12:10:36.465Z,1015.83
2023-03-27T12:11:37.292Z,1015.87
2023-03-27T12:12:38.123Z,1015.90
2023-03-27T12:13:42.340Z,1015.93
2023-03-27T12:14:41.156Z,1015.93
2023-03-27T12:15:40.111Z,1015.92
2023-03-27T12:16:41.008Z,1015.92